sensor_id;sensor_type;location;lat;lon;timestamp;pressure;altitude;pressure_sealevel;temperature;humidity
72124;BME280;63818;37.134;-8.548;2023-04-30T00:02:32;101601.6;;;21.4;59.2
72124;BME280;63818;37.134;-8.548;2023-04-30T00:07:17;101595.6;;;21.5;59.1
72124;BME280;63818;37.134;-8.548;2023-04-30T00:12:04;101592.1;;;21.5;59.0
72124;BME280;63818;37.134;-8.548;2023-04-30T00:16:50;101592.2;;;21.6;58.7
72124;BME280;63818;37.134;-8.548;2023-04-30T00:21:37;101595.4;;;21.6;58.7
72124;BME280;63818;37.134;-8.548;2023-04-30T00:26:22;101579.7;;;21.6;58.5
72124;BME280;63818;37.134;-8.548;2023-04-30T00:31:10;101581.7;;;21.6;58.9
72124;BME280;63818;37.134;-8.548;2023-04-30T00:35:59;101560.3;;;21.6;59.0
72124;BME280;63818;37.134;-8.548;2023-04-30T00:40:45;101570.9;;;21.6;59.0
72124;BME280;63818;37.134;-8.548;2023-04-30T00:45:31;101572.0;;;21.6;59.3
72124;BME280;63818;37.134;-8.548;2023-04-30T00:50:18;101577.1;;;21.7;59.3
72124;BME280;63818;37.134;-8.548;2023-04-30T00:55:05;101565.8;;;21.6;59.2
72124;BME280;63818;37.134;-8.548;2023-04-30T00:59:51;101563.8;;;21.6;59.0
72124;BME280;63818;37.134;-8.548;2023-04-30T01:04:37;101563.0;;;21.6;59.0
72124;BME280;63818;37.134;-8.548;2023-04-30T01:09:23;101582.6;;;21.6;59.0
72124;BME280;63818;37.134;-8.548;2023-04-30T01:14:12;101570.4;;;21.6;58.7
72124;BME280;63818;37.134;-8.548;2023-04-30T01:18:59;101553.9;;;21.6;58.6
72124;BME280;63818;37.134;-8.548;2023-04-30T01:24:01;101562.1;;;21.6;58.9
72124;BME280;63818;37.134;-8.548;2023-04-30T01:28:49;101575.7;;;21.5;58.5
72124;BME280;63818;37.134;-8.548;2023-04-30T01:33:35;101576.9;;;21.5;58.6
72124;BME280;63818;37.134;-8.548;2023-04-30T01:38:27;101574.1;;;21.5;59.1
72124;BME280;63818;37.134;-8.548;2023-04-30T01:43:28;101561.8;;;21.4;59.4
72124;BME280;63818;37.134;-8.548;2023-04-30T01:48:24;101550.9;;;21.4;59.4
72124;BME280;63818;37.134;-8.548;2023-04-30T01:53:17;101565.6;;;21.3;60.2
72124;BME280;63818;37.134;-8.548;2023-04-30T01:58:07;101572.2;;;21.3;60.6
72124;BME280;63818;37.134;-8.548;2023-04-30T02:02:54;101575.3;;;21.3;61.1
72124;BME280;63818;37.134;-8.548;2023-04-30T02:07:41;101567.4;;;21.3;61.6
72124;BME280;63818;37.134;-8.548;2023-04-30T02:12:28;101579.5;;;21.3;61.8
72124;BME280;63818;37.134;-8.548;2023-04-30T02:17:14;101575.6;;;21.3;62.0
72124;BME280;63818;37.134;-8.548;2023-04-30T02:22:00;101582.8;;;21.2;62.1
72124;BME280;63818;37.134;-8.548;2023-04-30T02:26:46;101584.8;;;21.2;62.5
72124;BME280;63818;37.134;-8.548;2023-04-30T02:31:32;101603.3;;;21.1;62.4
72124;BME280;63818;37.134;-8.548;2023-04-30T02:36:18;101593.8;;;21.2;62.9
72124;BME280;63818;37.134;-8.548;2023-04-30T02:41:04;101604.7;;;21.2;62.6
72124;BME280;63818;37.134;-8.548;2023-04-30T02:45:51;101598.1;;;21.2;62.5
72124;BME280;63818;37.134;-8.548;2023-04-30T02:50:37;101603.7;;;21.1;62.0
72124;BME280;63818;37.134;-8.548;2023-04-30T02:55:23;101587.8;;;21.1;62.4
72124;BME280;63818;37.134;-8.548;2023-04-30T03:00:10;101591.0;;;21.1;62.6
72124;BME280;63818;37.134;-8.548;2023-04-30T03:04:56;101587.8;;;21.1;62.1
72124;BME280;63818;37.134;-8.548;2023-04-30T03:09:42;101593.6;;;21.0;62.0
72124;BME280;63818;37.134;-8.548;2023-04-30T03:14:28;101587.6;;;20.9;62.3
72124;BME280;63818;37.134;-8.548;2023-04-30T03:19:14;101597.0;;;20.9;62.3
72124;BME280;63818;37.134;-8.548;2023-04-30T03:24:00;101579.8;;;20.9;62.3
72124;BME280;63818;37.134;-8.548;2023-04-30T03:28:46;101590.7;;;20.9;61.5
72124;BME280;63818;37.134;-8.548;2023-04-30T03:33:33;101584.6;;;20.8;61.5
72124;BME280;63818;37.134;-8.548;2023-04-30T03:38:19;101576.0;;;20.8;61.1
72124;BME280;63818;37.134;-8.548;2023-04-30T03:43:05;101565.0;;;20.7;60.8
72124;BME280;63818;37.134;-8.548;2023-04-30T03:47:52;101567.8;;;20.6;60.9
72124;BME280;63818;37.134;-8.548;2023-04-30T03:52:38;101567.2;;;20.5;60.9
72124;BME280;63818;37.134;-8.548;2023-04-30T03:57:24;101568.6;;;20.4;61.0
72124;BME280;63818;37.134;-8.548;2023-04-30T04:02:10;101542.5;;;20.5;60.9
72124;BME280;63818;37.134;-8.548;2023-04-30T04:06:55;101540.2;;;20.5;61.0
72124;BME280;63818;37.134;-8.548;2023-04-30T04:11:42;101521.8;;;20.5;60.9
72124;BME280;63818;37.134;-8.548;2023-04-30T04:16:28;101509.3;;;20.4;61.0
72124;BME280;63818;37.134;-8.548;2023-04-30T04:21:16;101500.1;;;20.5;61.0
72124;BME280;63818;37.134;-8.548;2023-04-30T04:26:02;101495.5;;;20.5;61.1
72124;BME280;63818;37.134;-8.548;2023-04-30T04:30:49;101486.9;;;20.5;60.7
72124;BME280;63818;37.134;-8.548;2023-04-30T04:35:35;101483.2;;;20.5;60.8
72124;BME280;63818;37.134;-8.548;2023-04-30T04:40:21;101479.4;;;20.5;61.1
72124;BME280;63818;37.134;-8.548;2023-04-30T04:45:07;101460.9;;;20.6;61.0
72124;BME280;63818;37.134;-8.548;2023-04-30T04:49:54;101464.8;;;20.6;60.7
72124;BME280;63818;37.134;-8.548;2023-04-30T04:54:40;101463.2;;;20.6;60.9
72124;BME280;63818;37.134;-8.548;2023-04-30T04:59:26;101457.3;;;20.6;61.2
72124;BME280;63818;37.134;-8.548;2023-04-30T05:04:12;101451.7;;;20.7;61.1
72124;BME280;63818;37.134;-8.548;2023-04-30T05:08:58;101455.3;;;20.7;60.7
72124;BME280;63818;37.134;-8.548;2023-04-30T05:13:45;101470.2;;;20.7;60.9
72124;BME280;63818;37.134;-8.548;2023-04-30T05:18:31;101467.8;;;20.7;60.7
72124;BME280;63818;37.134;-8.548;2023-04-30T05:23:17;101465.4;;;20.7;61.0
72124;BME280;63818;37.134;-8.548;2023-04-30T05:28:05;101460.1;;;20.6;61.1
72124;BME280;63818;37.134;-8.548;2023-04-30T05:32:51;101474.9;;;20.6;61.5
72124;BME280;63818;37.134;-8.548;2023-04-30T05:37:37;101480.3;;;20.5;61.7
72124;BME280;63818;37.134;-8.548;2023-04-30T05:42:24;101492.6;;;20.5;61.9
72124;BME280;63818;37.134;-8.548;2023-04-30T05:47:10;101485.7;;;20.4;62.4
72124;BME280;63818;37.134;-8.548;2023-04-30T05:51:56;101483.9;;;20.3;63.1
72124;BME280;63818;37.134;-8.548;2023-04-30T05:56:42;101470.0;;;20.3;63.3
72124;BME280;63818;37.134;-8.548;2023-04-30T06:01:28;101464.9;;;20.4;62.9
72124;BME280;63818;37.134;-8.548;2023-04-30T06:06:14;101476.1;;;20.4;62.9
72124;BME280;63818;37.134;-8.548;2023-04-30T06:11:00;101488.3;;;20.5;62.9
72124;BME280;63818;37.134;-8.548;2023-04-30T06:15:46;101495.6;;;20.6;62.5
72124;BME280;63818;37.134;-8.548;2023-04-30T06:20:32;101496.4;;;20.6;62.2
72124;BME280;63818;37.134;-8.548;2023-04-30T06:25:18;101492.3;;;20.7;62.0
72124;BME280;63818;37.134;-8.548;2023-04-30T06:30:05;101501.0;;;20.7;62.5
72124;BME280;63818;37.134;-8.548;2023-04-30T06:34:51;101507.5;;;20.7;62.3
72124;BME280;63818;37.134;-8.548;2023-04-30T06:39:37;101516.6;;;20.7;62.3
72124;BME280;63818;37.134;-8.548;2023-04-30T06:44:23;101508.5;;;20.6;62.7
72124;BME280;63818;37.134;-8.548;2023-04-30T06:49:09;101507.4;;;20.6;62.7
72124;BME280;63818;37.134;-8.548;2023-04-30T06:53:55;101501.7;;;20.7;62.9
72124;BME280;63818;37.134;-8.548;2023-04-30T06:58:41;101507.1;;;20.7;62.6
72124;BME280;63818;37.134;-8.548;2023-04-30T07:03:27;101509.9;;;20.7;62.5
72124;BME280;63818;37.134;-8.548;2023-04-30T07:08:14;101522.9;;;20.6;62.9
72124;BME280;63818;37.134;-8.548;2023-04-30T07:13:02;101528.6;;;20.7;62.4
72124;BME280;63818;37.134;-8.548;2023-04-30T07:17:48;101533.6;;;20.6;63.0
72124;BME280;63818;37.134;-8.548;2023-04-30T07:22:35;101532.3;;;20.6;63.3
72124;BME280;63818;37.134;-8.548;2023-04-30T07:27:20;101518.7;;;20.6;63.8
72124;BME280;63818;37.134;-8.548;2023-04-30T07:32:06;101515.3;;;20.7;63.9
72124;BME280;63818;37.134;-8.548;2023-04-30T07:36:52;101520.8;;;20.7;63.0
72124;BME280;63818;37.134;-8.548;2023-04-30T07:41:39;101506.6;;;20.6;62.5
72124;BME280;63818;37.134;-8.548;2023-04-30T07:46:27;101516.3;;;20.6;62.8
72124;BME280;63818;37.134;-8.548;2023-04-30T07:51:13;101516.0;;;20.6;63.8
72124;BME280;63818;37.134;-8.548;2023-04-30T07:55:59;101532.3;;;20.6;64.6
72124;BME280;63818;37.134;-8.548;2023-04-30T08:00:45;101516.5;;;20.5;64.4
72124;BME280;63818;37.134;-8.548;2023-04-30T08:05:31;101517.4;;;20.6;64.7
72124;BME280;63818;37.134;-8.548;2023-04-30T08:10:17;101512.3;;;20.5;64.4
72124;BME280;63818;37.134;-8.548;2023-04-30T08:15:04;101524.9;;;20.6;63.5
72124;BME280;63818;37.134;-8.548;2023-04-30T08:19:50;101530.1;;;20.5;63.7
72124;BME280;63818;37.134;-8.548;2023-04-30T08:24:37;101515.1;;;20.4;63.7
72124;BME280;63818;37.134;-8.548;2023-04-30T08:29:22;101513.9;;;20.4;63.3
72124;BME280;63818;37.134;-8.548;2023-04-30T08:34:09;101515.4;;;20.4;63.4
72124;BME280;63818;37.134;-8.548;2023-04-30T08:38:55;101529.5;;;20.4;63.6
72124;BME280;63818;37.134;-8.548;2023-04-30T08:43:42;101524.8;;;20.4;63.9
72124;BME280;63818;37.134;-8.548;2023-04-30T08:48:29;101518.0;;;20.5;63.7
72124;BME280;63818;37.134;-8.548;2023-04-30T08:53:16;101501.7;;;20.5;63.1
72124;BME280;63818;37.134;-8.548;2023-04-30T08:58:05;101510.1;;;20.6;63.3
72124;BME280;63818;37.134;-8.548;2023-04-30T09:02:54;101511.8;;;20.7;62.7
72124;BME280;63818;37.134;-8.548;2023-04-30T09:07:42;101505.6;;;20.7;62.2
72124;BME280;63818;37.134;-8.548;2023-04-30T09:12:28;101511.9;;;20.7;62.1
72124;BME280;63818;37.134;-8.548;2023-04-30T09:17:20;101501.9;;;20.8;61.9
72124;BME280;63818;37.134;-8.548;2023-04-30T09:22:22;101503.6;;;20.9;61.8
72124;BME280;63818;37.134;-8.548;2023-04-30T09:27:16;101490.4;;;20.9;61.3
72124;BME280;63818;37.134;-8.548;2023-04-30T09:32:08;101497.5;;;20.9;61.6
72124;BME280;63818;37.134;-8.548;2023-04-30T09:36:55;101480.7;;;20.9;62.3
72124;BME280;63818;37.134;-8.548;2023-04-30T09:41:41;101469.1;;;21.0;61.8
72124;BME280;63818;37.134;-8.548;2023-04-30T09:46:31;101470.5;;;21.1;62.8
72124;BME280;63818;37.134;-8.548;2023-04-30T09:51:18;101467.1;;;21.1;61.7
72124;BME280;63818;37.134;-8.548;2023-04-30T09:56:06;101458.2;;;21.1;61.3
72124;BME280;63818;37.134;-8.548;2023-04-30T10:00:52;101455.1;;;21.1;61.6
72124;BME280;63818;37.134;-8.548;2023-04-30T10:05:42;101451.6;;;21.2;60.8
72124;BME280;63818;37.134;-8.548;2023-04-30T10:10:30;101438.0;;;21.2;60.3
72124;BME280;63818;37.134;-8.548;2023-04-30T10:15:19;101430.6;;;21.2;59.8
72124;BME280;63818;37.134;-8.548;2023-04-30T10:20:08;101434.6;;;21.2;60.2
72124;BME280;63818;37.134;-8.548;2023-04-30T10:24:54;101429.2;;;21.3;59.9
72124;BME280;63818;37.134;-8.548;2023-04-30T10:29:41;101420.3;;;21.3;59.7
72124;BME280;63818;37.134;-8.548;2023-04-30T10:34:35;101411.8;;;21.4;59.1
72124;BME280;63818;37.134;-8.548;2023-04-30T10:39:25;101397.3;;;21.4;58.5
72124;BME280;63818;37.134;-8.548;2023-04-30T10:44:11;101396.6;;;21.4;58.5
72124;BME280;63818;37.134;-8.548;2023-04-30T10:48:57;101382.6;;;21.4;58.6
72124;BME280;63818;37.134;-8.548;2023-04-30T10:53:43;101375.7;;;21.5;58.3
72124;BME280;63818;37.134;-8.548;2023-04-30T10:58:32;101369.9;;;21.5;57.6
72124;BME280;63818;37.134;-8.548;2023-04-30T11:03:21;101365.3;;;21.6;57.0
72124;BME280;63818;37.134;-8.548;2023-04-30T11:08:10;101364.2;;;21.6;56.6
72124;BME280;63818;37.134;-8.548;2023-04-30T11:12:56;101371.3;;;21.7;55.9
72124;BME280;63818;37.134;-8.548;2023-04-30T11:17:44;101361.9;;;21.7;55.7
72124;BME280;63818;37.134;-8.548;2023-04-30T11:22:30;101359.2;;;21.7;55.5
72124;BME280;63818;37.134;-8.548;2023-04-30T11:27:20;101346.8;;;21.8;54.9
72124;BME280;63818;37.134;-8.548;2023-04-30T11:32:07;101354.3;;;21.8;55.1
72124;BME280;63818;37.134;-8.548;2023-04-30T11:36:57;101332.5;;;21.9;55.0
72124;BME280;63818;37.134;-8.548;2023-04-30T11:41:44;101328.6;;;21.9;55.3
72124;BME280;63818;37.134;-8.548;2023-04-30T11:46:30;101327.5;;;22.0;54.6
72124;BME280;63818;37.134;-8.548;2023-04-30T11:51:18;101320.9;;;22.0;54.5
72124;BME280;63818;37.134;-8.548;2023-04-30T11:56:04;101324.1;;;22.0;53.9
72124;BME280;63818;37.134;-8.548;2023-04-30T12:00:51;101307.7;;;22.0;53.6
72124;BME280;63818;37.134;-8.548;2023-04-30T12:05:39;101314.5;;;22.1;54.0
72124;BME280;63818;37.134;-8.548;2023-04-30T12:10:25;101303.9;;;22.1;54.2
72124;BME280;63818;37.134;-8.548;2023-04-30T12:15:12;101302.3;;;22.0;54.4
72124;BME280;63818;37.134;-8.548;2023-04-30T12:19:58;101286.3;;;22.1;54.1
72124;BME280;63818;37.134;-8.548;2023-04-30T12:24:48;101287.4;;;22.1;56.8
72124;BME280;63818;37.134;-8.548;2023-04-30T12:29:42;101292.9;;;22.1;56.8
72124;BME280;63818;37.134;-8.548;2023-04-30T12:34:28;101305.4;;;22.0;57.3
72124;BME280;63818;37.134;-8.548;2023-04-30T12:39:15;101287.9;;;22.1;56.5
72124;BME280;63818;37.134;-8.548;2023-04-30T12:44:20;101304.4;;;22.1;56.9
72124;BME280;63818;37.134;-8.548;2023-04-30T12:49:06;101300.9;;;22.2;56.8
72124;BME280;63818;37.134;-8.548;2023-04-30T12:53:53;101296.7;;;22.3;55.9
72124;BME280;63818;37.134;-8.548;2023-04-30T12:58:39;101287.0;;;22.3;56.0
72124;BME280;63818;37.134;-8.548;2023-04-30T13:03:27;101302.7;;;22.4;55.9
72124;BME280;63818;37.134;-8.548;2023-04-30T13:08:14;101293.0;;;22.4;56.7
72124;BME280;63818;37.134;-8.548;2023-04-30T13:13:03;101283.7;;;22.5;57.6
72124;BME280;63818;37.134;-8.548;2023-04-30T13:17:49;101281.0;;;22.5;58.1
72124;BME280;63818;37.134;-8.548;2023-04-30T13:22:35;101285.8;;;22.6;58.6
72124;BME280;63818;37.134;-8.548;2023-04-30T13:27:21;101276.8;;;22.7;58.1
72124;BME280;63818;37.134;-8.548;2023-04-30T13:32:07;101282.0;;;22.7;58.8
72124;BME280;63818;37.134;-8.548;2023-04-30T13:36:53;101280.8;;;22.8;59.6
72124;BME280;63818;37.134;-8.548;2023-04-30T13:41:39;101279.0;;;22.9;59.3
72124;BME280;63818;37.134;-8.548;2023-04-30T13:46:26;101272.4;;;23.0;58.7
72124;BME280;63818;37.134;-8.548;2023-04-30T13:51:12;101261.1;;;23.0;58.8
72124;BME280;63818;37.134;-8.548;2023-04-30T13:55:58;101266.7;;;23.1;58.9
72124;BME280;63818;37.134;-8.548;2023-04-30T14:00:44;101267.2;;;23.2;58.5
72124;BME280;63818;37.134;-8.548;2023-04-30T14:05:31;101287.2;;;23.3;58.6
72124;BME280;63818;37.134;-8.548;2023-04-30T14:10:17;101241.9;;;23.5;57.9
72124;BME280;63818;37.134;-8.548;2023-04-30T14:15:04;101261.6;;;23.6;57.6
72124;BME280;63818;37.134;-8.548;2023-04-30T14:19:52;101238.2;;;23.8;57.1
72124;BME280;63818;37.134;-8.548;2023-04-30T14:24:38;101242.2;;;23.9;56.7
72124;BME280;63818;37.134;-8.548;2023-04-30T14:29:31;101229.3;;;24.1;56.2
72124;BME280;63818;37.134;-8.548;2023-04-30T14:34:20;101229.7;;;24.2;55.0
72124;BME280;63818;37.134;-8.548;2023-04-30T14:39:06;101203.5;;;24.2;55.2
72124;BME280;63818;37.134;-8.548;2023-04-30T14:43:55;101218.0;;;24.4;55.1
72124;BME280;63818;37.134;-8.548;2023-04-30T14:48:41;101194.1;;;24.4;54.7
72124;BME280;63818;37.134;-8.548;2023-04-30T14:53:27;101182.4;;;24.5;54.3
72124;BME280;63818;37.134;-8.548;2023-04-30T14:58:16;101194.1;;;24.5;54.3
72124;BME280;63818;37.134;-8.548;2023-04-30T15:03:02;101187.1;;;24.6;54.1
72124;BME280;63818;37.134;-8.548;2023-04-30T15:07:48;101204.7;;;24.7;53.3
72124;BME280;63818;37.134;-8.548;2023-04-30T15:12:36;101185.1;;;24.9;52.5
72124;BME280;63818;37.134;-8.548;2023-04-30T15:17:23;101177.7;;;25.2;52.7
72124;BME280;63818;37.134;-8.548;2023-04-30T15:22:09;101180.4;;;25.3;51.3
72124;BME280;63818;37.134;-8.548;2023-04-30T15:26:57;101156.7;;;25.7;50.7
72124;BME280;63818;37.134;-8.548;2023-04-30T15:31:43;101148.7;;;26.0;49.3
72124;BME280;63818;37.134;-8.548;2023-04-30T15:36:29;101147.0;;;26.7;48.8
72124;BME280;63818;37.134;-8.548;2023-04-30T15:41:15;101133.7;;;27.8;46.2
72124;BME280;63818;37.134;-8.548;2023-04-30T15:46:02;101139.4;;;27.7;45.4
72124;BME280;63818;37.134;-8.548;2023-04-30T15:50:49;101127.0;;;27.8;45.2
72124;BME280;63818;37.134;-8.548;2023-04-30T15:55:35;101130.4;;;28.2;45.0
72124;BME280;63818;37.134;-8.548;2023-04-30T16:00:22;101136.1;;;28.5;43.8
72124;BME280;63818;37.134;-8.548;2023-04-30T16:05:08;101118.5;;;28.5;43.5
72124;BME280;63818;37.134;-8.548;2023-04-30T16:09:57;101132.3;;;28.7;43.1
72124;BME280;63818;37.134;-8.548;2023-04-30T16:14:46;101123.0;;;29.7;41.1
72124;BME280;63818;37.134;-8.548;2023-04-30T16:19:33;101123.7;;;30.5;40.4
72124;BME280;63818;37.134;-8.548;2023-04-30T16:24:19;101115.0;;;29.1;40.7
72124;BME280;63818;37.134;-8.548;2023-04-30T16:29:05;101154.7;;;28.0;42.8
72124;BME280;63818;37.134;-8.548;2023-04-30T16:33:51;101152.2;;;27.5;43.9
72124;BME280;63818;37.134;-8.548;2023-04-30T16:38:38;101140.0;;;27.2;44.6
72124;BME280;63818;37.134;-8.548;2023-04-30T16:43:25;101147.1;;;27.1;45.2
72124;BME280;63818;37.134;-8.548;2023-04-30T16:48:12;101148.8;;;27.0;45.7
72124;BME280;63818;37.134;-8.548;2023-04-30T16:52:59;101146.4;;;27.0;44.9
72124;BME280;63818;37.134;-8.548;2023-04-30T16:57:47;101139.0;;;27.0;45.2
72124;BME280;63818;37.134;-8.548;2023-04-30T17:02:34;101148.8;;;27.0;45.6
72124;BME280;63818;37.134;-8.548;2023-04-30T17:07:20;101140.2;;;26.9;45.1
72124;BME280;63818;37.134;-8.548;2023-04-30T17:12:06;101150.5;;;26.8;46.0
72124;BME280;63818;37.134;-8.548;2023-04-30T17:16:52;101155.3;;;26.7;46.4
72124;BME280;63818;37.134;-8.548;2023-04-30T17:21:39;101142.4;;;26.6;46.3
72124;BME280;63818;37.134;-8.548;2023-04-30T17:26:27;101150.0;;;26.5;47.2
72124;BME280;63818;37.134;-8.548;2023-04-30T17:31:13;101169.0;;;26.3;47.3
72124;BME280;63818;37.134;-8.548;2023-04-30T17:35:59;101151.7;;;26.2;47.6
72124;BME280;63818;37.134;-8.548;2023-04-30T17:40:46;101145.5;;;26.1;47.3
72124;BME280;63818;37.134;-8.548;2023-04-30T17:45:32;101183.7;;;26.0;48.3
72124;BME280;63818;37.134;-8.548;2023-04-30T17:50:18;101161.8;;;25.8;48.9
72124;BME280;63818;37.134;-8.548;2023-04-30T17:55:06;101168.1;;;25.6;49.3
72124;BME280;63818;37.134;-8.548;2023-04-30T17:59:52;101165.4;;;25.5;49.5
72124;BME280;63818;37.134;-8.548;2023-04-30T18:04:38;101153.6;;;25.4;49.8
72124;BME280;63818;37.134;-8.548;2023-04-30T18:09:24;101171.3;;;25.4;49.6
72124;BME280;63818;37.134;-8.548;2023-04-30T18:14:10;101177.2;;;25.3;49.8
72124;BME280;63818;37.134;-8.548;2023-04-30T18:18:56;101156.0;;;25.2;50.0
72124;BME280;63818;37.134;-8.548;2023-04-30T18:23:42;101155.3;;;25.1;50.7
72124;BME280;63818;37.134;-8.548;2023-04-30T18:28:28;101170.2;;;25.0;51.4
72124;BME280;63818;37.134;-8.548;2023-04-30T18:33:15;101171.8;;;25.0;51.6
72124;BME280;63818;37.134;-8.548;2023-04-30T18:38:01;101184.0;;;24.9;51.6
72124;BME280;63818;37.134;-8.548;2023-04-30T18:42:47;101193.8;;;24.9;51.7
72124;BME280;63818;37.134;-8.548;2023-04-30T18:47:33;101192.6;;;24.8;52.6
72124;BME280;63818;37.134;-8.548;2023-04-30T18:52:19;101205.9;;;24.6;52.4
72124;BME280;63818;37.134;-8.548;2023-04-30T18:57:05;101223.5;;;24.4;52.9
72124;BME280;63818;37.134;-8.548;2023-04-30T19:01:51;101235.6;;;24.1;53.8
72124;BME280;63818;37.134;-8.548;2023-04-30T19:06:37;101276.7;;;24.0;53.9
72124;BME280;63818;37.134;-8.548;2023-04-30T19:11:23;101260.5;;;23.8;54.8
72124;BME280;63818;37.134;-8.548;2023-04-30T19:16:09;101252.7;;;23.9;54.7
72124;BME280;63818;37.134;-8.548;2023-04-30T19:20:57;101268.2;;;23.5;55.9
72124;BME280;63818;37.134;-8.548;2023-04-30T19:25:48;101272.1;;;23.5;56.0
72124;BME280;63818;37.134;-8.548;2023-04-30T19:30:34;101276.3;;;23.4;55.8
72124;BME280;63818;37.134;-8.548;2023-04-30T19:35:20;101267.5;;;23.2;56.2
72124;BME280;63818;37.134;-8.548;2023-04-30T19:40:08;101272.5;;;23.5;55.9
72124;BME280;63818;37.134;-8.548;2023-04-30T19:44:54;101284.3;;;23.1;56.8
72124;BME280;63818;37.134;-8.548;2023-04-30T19:49:41;101287.5;;;23.1;56.8
72124;BME280;63818;37.134;-8.548;2023-04-30T19:54:26;101292.4;;;22.9;57.1
72124;BME280;63818;37.134;-8.548;2023-04-30T19:59:15;101293.5;;;22.9;57.5
72124;BME280;63818;37.134;-8.548;2023-04-30T20:04:01;101307.5;;;22.8;57.9
72124;BME280;63818;37.134;-8.548;2023-04-30T20:08:47;101329.3;;;22.7;58.0
72124;BME280;63818;37.134;-8.548;2023-04-30T20:13:33;101315.6;;;22.7;58.4
72124;BME280;63818;37.134;-8.548;2023-04-30T20:18:19;101317.4;;;22.5;58.6
72124;BME280;63818;37.134;-8.548;2023-04-30T20:23:13;101328.2;;;22.5;58.9
72124;BME280;63818;37.134;-8.548;2023-04-30T20:27:59;101326.5;;;22.3;59.6
72124;BME280;63818;37.134;-8.548;2023-04-30T20:32:45;101350.0;;;22.3;59.6
72124;BME280;63818;37.134;-8.548;2023-04-30T20:37:31;101356.7;;;22.1;60.4
72124;BME280;63818;37.134;-8.548;2023-04-30T20:42:17;101371.6;;;22.1;61.0
72124;BME280;63818;37.134;-8.548;2023-04-30T20:47:05;101354.4;;;22.2;60.6
72124;BME280;63818;37.134;-8.548;2023-04-30T20:51:52;101362.7;;;22.2;60.4
72124;BME280;63818;37.134;-8.548;2023-04-30T20:56:38;101372.0;;;22.2;60.8
72124;BME280;63818;37.134;-8.548;2023-04-30T21:01:26;101380.9;;;22.1;60.9
72124;BME280;63818;37.134;-8.548;2023-04-30T21:06:12;101383.0;;;22.1;61.2
72124;BME280;63818;37.134;-8.548;2023-04-30T21:10:58;101381.2;;;22.0;61.2
72124;BME280;63818;37.134;-8.548;2023-04-30T21:15:44;101376.4;;;22.0;61.4
72124;BME280;63818;37.134;-8.548;2023-04-30T21:20:30;101388.4;;;21.9;61.5
72124;BME280;63818;37.134;-8.548;2023-04-30T21:25:16;101410.1;;;21.8;62.2
72124;BME280;63818;37.134;-8.548;2023-04-30T21:30:03;101406.1;;;21.8;62.2
72124;BME280;63818;37.134;-8.548;2023-04-30T21:34:49;101416.7;;;21.7;62.0
72124;BME280;63818;37.134;-8.548;2023-04-30T21:39:35;101411.7;;;21.8;62.2
72124;BME280;63818;37.134;-8.548;2023-04-30T21:44:23;101403.5;;;21.8;61.9
72124;BME280;63818;37.134;-8.548;2023-04-30T21:49:09;101391.1;;;21.9;61.8
72124;BME280;63818;37.134;-8.548;2023-04-30T21:53:55;101386.9;;;21.9;61.4
72124;BME280;63818;37.134;-8.548;2023-04-30T21:58:41;101387.4;;;22.0;61.6
72124;BME280;63818;37.134;-8.548;2023-04-30T22:03:27;101387.0;;;22.0;61.6
72124;BME280;63818;37.134;-8.548;2023-04-30T22:08:13;101377.4;;;22.1;60.9
72124;BME280;63818;37.134;-8.548;2023-04-30T22:13:00;101370.5;;;22.2;60.5
72124;BME280;63818;37.134;-8.548;2023-04-30T22:17:46;101368.9;;;22.2;60.7
72124;BME280;63818;37.134;-8.548;2023-04-30T22:22:33;101360.4;;;22.2;60.2
72124;BME280;63818;37.134;-8.548;2023-04-30T22:27:18;101358.6;;;22.1;59.9
72124;BME280;63818;37.134;-8.548;2023-04-30T22:32:04;101377.4;;;22.1;59.8
72124;BME280;63818;37.134;-8.548;2023-04-30T22:36:53;101375.1;;;21.9;60.2
72124;BME280;63818;37.134;-8.548;2023-04-30T22:41:39;101368.1;;;21.9;60.1
72124;BME280;63818;37.134;-8.548;2023-04-30T22:46:25;101364.5;;;21.9;60.1
72124;BME280;63818;37.134;-8.548;2023-04-30T22:51:11;101361.1;;;22.1;59.5
72124;BME280;63818;37.134;-8.548;2023-04-30T22:55:58;101358.0;;;22.2;58.8
72124;BME280;63818;37.134;-8.548;2023-04-30T23:00:44;101357.3;;;22.3;58.5
72124;BME280;63818;37.134;-8.548;2023-04-30T23:05:30;101361.2;;;22.3;58.0
72124;BME280;63818;37.134;-8.548;2023-04-30T23:10:16;101356.6;;;22.3;57.6
72124;BME280;63818;37.134;-8.548;2023-04-30T23:15:03;101350.4;;;22.4;57.4
72124;BME280;63818;37.134;-8.548;2023-04-30T23:19:49;101334.1;;;22.5;56.9
72124;BME280;63818;37.134;-8.548;2023-04-30T23:24:35;101334.5;;;22.5;56.7
72124;BME280;63818;37.134;-8.548;2023-04-30T23:29:21;101323.1;;;22.5;56.8
72124;BME280;63818;37.134;-8.548;2023-04-30T23:34:07;101318.1;;;22.5;56.7
72124;BME280;63818;37.134;-8.548;2023-04-30T23:38:54;101316.5;;;22.5;56.7
72124;BME280;63818;37.134;-8.548;2023-04-30T23:43:40;101312.7;;;22.5;56.4
72124;BME280;63818;37.134;-8.548;2023-04-30T23:48:28;101323.2;;;22.5;56.3
72124;BME280;63818;37.134;-8.548;2023-04-30T23:53:14;101316.9;;;22.5;56.3
72124;BME280;63818;37.134;-8.548;2023-04-30T23:58:00;101317.4;;;22.5;56.3
